Burnwood, New York
Current Conditions -  °F | °C
As of 12:55 AM on Sunday 26 Oct 2014 (Local Time) from KMSV Reporting Station
Clear Clear  
Wind Chill: 10°   Ceiling: Unl
Heat Index: 10°   Visibility: 10mi
Dew Point:   Wind: 7mph
Humidity: 66%   Direction: 270°W
Pressure: 29.58"   Gusts: NA
Location:  41.9811°N, 75.0952°W
Report Text: KMSV 260455Z AUTO 27006KT 10SM CLR 10/04 A2958 RMK AO1
Loading
Personal Weather Stations






























Interactive Weather Map
Tropical Storm Tracking
New forecast layout! Learn more

10-Day Weather Forecast

Advertisements
Track Severe Weather on mobile